sensor_id;sensor_type;location;lat;lon;timestamp;temperature;humidity
36586;DHT22;22591;48.314;11.562;2023-09-19T00:01:20;16.30;99.90
36586;DHT22;22591;48.314;11.562;2023-09-19T00:03:47;16.30;99.90
36586;DHT22;22591;48.314;11.562;2023-09-19T00:06:13;16.20;99.90
36586;DHT22;22591;48.314;11.562;2023-09-19T00:08:42;16.30;99.90
36586;DHT22;22591;48.314;11.562;2023-09-19T00:11:11;16.30;99.90
36586;DHT22;22591;48.314;11.562;2023-09-19T00:13:37;16.40;99.90
36586;DHT22;22591;48.314;11.562;2023-09-19T00:16:09;16.40;99.90
36586;DHT22;22591;48.314;11.562;2023-09-19T00:18:36;16.40;99.90
36586;DHT22;22591;48.314;11.562;2023-09-19T00:21:03;16.40;99.90
36586;DHT22;22591;48.314;11.562;2023-09-19T00:23:33;16.40;99.90
36586;DHT22;22591;48.314;11.562;2023-09-19T00:26:00;16.50;99.90
36586;DHT22;22591;48.314;11.562;2023-09-19T00:28:26;16.40;99.90
36586;DHT22;22591;48.314;11.562;2023-09-19T00:30:52;16.40;99.90
36586;DHT22;22591;48.314;11.562;2023-09-19T00:33:18;16.40;99.90
36586;DHT22;22591;48.314;11.562;2023-09-19T00:38:14;16.40;99.90
36586;DHT22;22591;48.314;11.562;2023-09-19T00:40:45;16.40;99.90
36586;DHT22;22591;48.314;11.562;2023-09-19T00:43:11;16.40;99.90
36586;DHT22;22591;48.314;11.562;2023-09-19T00:45:37;16.30;99.90
36586;DHT22;22591;48.314;11.562;2023-09-19T00:48:07;16.30;99.90
36586;DHT22;22591;48.314;11.562;2023-09-19T00:50:35;16.30;99.90
36586;DHT22;22591;48.314;11.562;2023-09-19T00:53:01;16.30;99.90
36586;DHT22;22591;48.314;11.562;2023-09-19T00:55:29;16.30;99.90
36586;DHT22;22591;48.314;11.562;2023-09-19T00:57:56;16.30;99.90
36586;DHT22;22591;48.314;11.562;2023-09-19T01:00:24;16.40;99.90
36586;DHT22;22591;48.314;11.562;2023-09-19T01:02:51;16.40;99.90
36586;DHT22;22591;48.314;11.562;2023-09-19T01:05:16;16.40;99.90
36586;DHT22;22591;48.314;11.562;2023-09-19T01:07:44;16.40;99.90
36586;DHT22;22591;48.314;11.562;2023-09-19T01:10:15;16.50;99.90
36586;DHT22;22591;48.314;11.562;2023-09-19T01:12:54;16.50;99.90
36586;DHT22;22591;48.314;11.562;2023-09-19T01:18:35;16.50;99.90
36586;DHT22;22591;48.314;11.562;2023-09-19T01:21:38;16.60;99.90
36586;DHT22;22591;48.314;11.562;2023-09-19T01:30:10;16.70;99.90
36586;DHT22;22591;48.314;11.562;2023-09-19T01:32:37;16.70;99.90
36586;DHT22;22591;48.314;11.562;2023-09-19T01:35:06;16.80;99.90
36586;DHT22;22591;48.314;11.562;2023-09-19T01:37:31;16.80;99.90
36586;DHT22;22591;48.314;11.562;2023-09-19T01:40:06;16.90;99.90
36586;DHT22;22591;48.314;11.562;2023-09-19T01:45:37;16.90;99.90
36586;DHT22;22591;48.314;11.562;2023-09-19T01:51:02;17.00;99.90
36586;DHT22;22591;48.314;11.562;2023-09-19T01:54:00;17.10;99.90
36586;DHT22;22591;48.314;11.562;2023-09-19T01:56:59;17.00;99.90
36586;DHT22;22591;48.314;11.562;2023-09-19T01:59:38;17.00;99.90
36586;DHT22;22591;48.314;11.562;2023-09-19T02:02:07;16.90;99.90
36586;DHT22;22591;48.314;11.562;2023-09-19T02:04:35;16.90;99.90
36586;DHT22;22591;48.314;11.562;2023-09-19T02:07:00;16.90;99.90
36586;DHT22;22591;48.314;11.562;2023-09-19T02:09:27;16.90;99.90
36586;DHT22;22591;48.314;11.562;2023-09-19T02:11:54;16.90;99.90
36586;DHT22;22591;48.314;11.562;2023-09-19T02:14:22;16.90;99.90
36586;DHT22;22591;48.314;11.562;2023-09-19T02:16:49;16.90;99.90
36586;DHT22;22591;48.314;11.562;2023-09-19T02:19:15;16.90;99.90
36586;DHT22;22591;48.314;11.562;2023-09-19T02:21:42;16.90;99.90
36586;DHT22;22591;48.314;11.562;2023-09-19T02:24:08;16.80;99.90
36586;DHT22;22591;48.314;11.562;2023-09-19T02:26:34;16.80;99.90
36586;DHT22;22591;48.314;11.562;2023-09-19T02:29:02;16.80;99.90
36586;DHT22;22591;48.314;11.562;2023-09-19T02:31:30;16.80;99.90
36586;DHT22;22591;48.314;11.562;2023-09-19T02:33:56;16.80;99.90
36586;DHT22;22591;48.314;11.562;2023-09-19T02:36:22;16.80;99.90
36586;DHT22;22591;48.314;11.562;2023-09-19T02:38:50;16.80;99.90
36586;DHT22;22591;48.314;11.562;2023-09-19T02:41:15;16.80;99.90
36586;DHT22;22591;48.314;11.562;2023-09-19T02:43:41;16.70;99.90
36586;DHT22;22591;48.314;11.562;2023-09-19T02:46:08;16.60;99.90
36586;DHT22;22591;48.314;11.562;2023-09-19T02:48:34;16.60;99.90
36586;DHT22;22591;48.314;11.562;2023-09-19T02:51:01;16.50;99.90
36586;DHT22;22591;48.314;11.562;2023-09-19T02:53:28;16.50;99.90
36586;DHT22;22591;48.314;11.562;2023-09-19T02:55:57;16.50;99.90
36586;DHT22;22591;48.314;11.562;2023-09-19T02:58:24;16.40;99.90
36586;DHT22;22591;48.314;11.562;2023-09-19T03:00:50;16.40;99.90
36586;DHT22;22591;48.314;11.562;2023-09-19T03:03:17;16.40;99.90
36586;DHT22;22591;48.314;11.562;2023-09-19T03:05:44;16.30;99.90
36586;DHT22;22591;48.314;11.562;2023-09-19T03:08:20;16.30;99.90
36586;DHT22;22591;48.314;11.562;2023-09-19T03:10:51;16.30;99.90
36586;DHT22;22591;48.314;11.562;2023-09-19T03:13:18;16.30;99.90
36586;DHT22;22591;48.314;11.562;2023-09-19T03:15:45;16.30;99.90
36586;DHT22;22591;48.314;11.562;2023-09-19T03:18:14;16.20;99.90
36586;DHT22;22591;48.314;11.562;2023-09-19T03:20:40;16.30;99.90
36586;DHT22;22591;48.314;11.562;2023-09-19T03:23:05;16.30;99.90
36586;DHT22;22591;48.314;11.562;2023-09-19T03:25:35;16.30;99.90
36586;DHT22;22591;48.314;11.562;2023-09-19T03:28:03;16.30;99.90
36586;DHT22;22591;48.314;11.562;2023-09-19T03:30:31;16.30;99.90
36586;DHT22;22591;48.314;11.562;2023-09-19T03:32:59;16.40;99.90
36586;DHT22;22591;48.314;11.562;2023-09-19T03:35:25;16.30;99.90
36586;DHT22;22591;48.314;11.562;2023-09-19T03:37:53;16.40;99.90
36586;DHT22;22591;48.314;11.562;2023-09-19T03:40:18;16.40;99.90
36586;DHT22;22591;48.314;11.562;2023-09-19T03:42:46;16.30;99.90
36586;DHT22;22591;48.314;11.562;2023-09-19T03:45:13;16.30;99.90
36586;DHT22;22591;48.314;11.562;2023-09-19T03:47:41;16.30;99.90
36586;DHT22;22591;48.314;11.562;2023-09-19T03:50:08;16.30;99.90
36586;DHT22;22591;48.314;11.562;2023-09-19T03:52:37;16.30;99.90
36586;DHT22;22591;48.314;11.562;2023-09-19T03:55:03;16.30;99.90
36586;DHT22;22591;48.314;11.562;2023-09-19T03:57:31;16.20;99.90
36586;DHT22;22591;48.314;11.562;2023-09-19T03:59:56;16.30;99.90
36586;DHT22;22591;48.314;11.562;2023-09-19T04:02:23;16.30;99.90
36586;DHT22;22591;48.314;11.562;2023-09-19T04:04:51;16.30;99.90
36586;DHT22;22591;48.314;11.562;2023-09-19T04:07:18;16.30;99.90
36586;DHT22;22591;48.314;11.562;2023-09-19T04:09:46;16.30;99.90
36586;DHT22;22591;48.314;11.562;2023-09-19T04:12:11;16.30;99.90
36586;DHT22;22591;48.314;11.562;2023-09-19T04:14:38;16.30;99.90
36586;DHT22;22591;48.314;11.562;2023-09-19T04:17:05;16.40;99.90
36586;DHT22;22591;48.314;11.562;2023-09-19T04:19:33;16.40;99.90
36586;DHT22;22591;48.314;11.562;2023-09-19T04:22:00;16.40;99.90
36586;DHT22;22591;48.314;11.562;2023-09-19T04:24:26;16.40;99.90
36586;DHT22;22591;48.314;11.562;2023-09-19T04:26:52;16.30;99.90
36586;DHT22;22591;48.314;11.562;2023-09-19T04:29:19;16.40;99.90
36586;DHT22;22591;48.314;11.562;2023-09-19T04:31:45;16.50;99.90
36586;DHT22;22591;48.314;11.562;2023-09-19T04:34:11;16.50;99.90
36586;DHT22;22591;48.314;11.562;2023-09-19T04:36:43;16.60;99.90
36586;DHT22;22591;48.314;11.562;2023-09-19T04:39:10;16.60;99.90
36586;DHT22;22591;48.314;11.562;2023-09-19T04:41:39;16.60;99.90
36586;DHT22;22591;48.314;11.562;2023-09-19T04:44:06;16.70;99.90
36586;DHT22;22591;48.314;11.562;2023-09-19T04:46:33;16.70;99.90
36586;DHT22;22591;48.314;11.562;2023-09-19T04:48:59;16.70;99.90
36586;DHT22;22591;48.314;11.562;2023-09-19T04:51:25;16.70;99.90
36586;DHT22;22591;48.314;11.562;2023-09-19T04:53:54;16.70;99.90
36586;DHT22;22591;48.314;11.562;2023-09-19T04:56:21;16.70;99.90
36586;DHT22;22591;48.314;11.562;2023-09-19T04:58:48;16.70;99.90
36586;DHT22;22591;48.314;11.562;2023-09-19T05:01:15;16.70;99.90
36586;DHT22;22591;48.314;11.562;2023-09-19T05:03:43;16.70;99.90
36586;DHT22;22591;48.314;11.562;2023-09-19T05:06:10;16.70;99.90
36586;DHT22;22591;48.314;11.562;2023-09-19T05:08:36;16.70;99.90
36586;DHT22;22591;48.314;11.562;2023-09-19T05:11:02;16.70;99.90
36586;DHT22;22591;48.314;11.562;2023-09-19T05:13:29;16.60;99.90
36586;DHT22;22591;48.314;11.562;2023-09-19T05:16:03;16.70;99.90
36586;DHT22;22591;48.314;11.562;2023-09-19T05:18:28;16.70;99.90
36586;DHT22;22591;48.314;11.562;2023-09-19T05:20:54;16.70;99.90
36586;DHT22;22591;48.314;11.562;2023-09-19T05:23:21;16.70;99.90
36586;DHT22;22591;48.314;11.562;2023-09-19T05:25:48;16.70;99.90
36586;DHT22;22591;48.314;11.562;2023-09-19T05:28:13;16.70;99.90
36586;DHT22;22591;48.314;11.562;2023-09-19T05:30:41;16.70;99.90
36586;DHT22;22591;48.314;11.562;2023-09-19T05:33:10;16.80;99.90
36586;DHT22;22591;48.314;11.562;2023-09-19T05:35:37;16.90;99.90
36586;DHT22;22591;48.314;11.562;2023-09-19T05:38:06;16.90;99.90
36586;DHT22;22591;48.314;11.562;2023-09-19T05:40:35;16.90;99.90
36586;DHT22;22591;48.314;11.562;2023-09-19T05:43:02;16.90;99.90
36586;DHT22;22591;48.314;11.562;2023-09-19T05:45:32;16.90;99.90
36586;DHT22;22591;48.314;11.562;2023-09-19T05:48:10;16.90;99.90
36586;DHT22;22591;48.314;11.562;2023-09-19T05:50:39;17.00;99.90
36586;DHT22;22591;48.314;11.562;2023-09-19T05:53:05;17.10;99.90
36586;DHT22;22591;48.314;11.562;2023-09-19T05:55:32;17.10;99.90
36586;DHT22;22591;48.314;11.562;2023-09-19T05:58:00;17.20;99.90
36586;DHT22;22591;48.314;11.562;2023-09-19T06:00:26;17.30;99.90
36586;DHT22;22591;48.314;11.562;2023-09-19T06:02:55;17.40;99.90
36586;DHT22;22591;48.314;11.562;2023-09-19T06:05:23;17.50;99.90
36586;DHT22;22591;48.314;11.562;2023-09-19T06:07:50;17.50;99.90
36586;DHT22;22591;48.314;11.562;2023-09-19T06:10:19;17.50;99.90
36586;DHT22;22591;48.314;11.562;2023-09-19T06:12:46;17.50;99.90
36586;DHT22;22591;48.314;11.562;2023-09-19T06:15:15;17.60;99.90
36586;DHT22;22591;48.314;11.562;2023-09-19T06:17:54;17.80;99.90
36586;DHT22;22591;48.314;11.562;2023-09-19T06:20:26;17.80;99.90
36586;DHT22;22591;48.314;11.562;2023-09-19T06:22:53;18.00;99.90
36586;DHT22;22591;48.314;11.562;2023-09-19T06:25:20;18.10;99.90
36586;DHT22;22591;48.314;11.562;2023-09-19T06:27:51;18.10;99.90
36586;DHT22;22591;48.314;11.562;2023-09-19T06:30:19;18.10;99.90
36586;DHT22;22591;48.314;11.562;2023-09-19T06:32:46;18.10;99.90
36586;DHT22;22591;48.314;11.562;2023-09-19T06:35:15;18.10;99.90
36586;DHT22;22591;48.314;11.562;2023-09-19T06:37:43;18.10;99.90
36586;DHT22;22591;48.314;11.562;2023-09-19T06:40:12;18.00;99.90
36586;DHT22;22591;48.314;11.562;2023-09-19T06:42:46;18.00;99.90
36586;DHT22;22591;48.314;11.562;2023-09-19T06:45:14;17.80;99.90
36586;DHT22;22591;48.314;11.562;2023-09-19T06:47:52;17.70;99.90
36586;DHT22;22591;48.314;11.562;2023-09-19T06:50:18;17.50;99.90
36586;DHT22;22591;48.314;11.562;2023-09-19T06:52:46;17.40;99.90
36586;DHT22;22591;48.314;11.562;2023-09-19T06:55:20;17.40;99.90
36586;DHT22;22591;48.314;11.562;2023-09-19T06:57:47;17.50;99.90
36586;DHT22;22591;48.314;11.562;2023-09-19T07:00:14;17.60;99.90
36586;DHT22;22591;48.314;11.562;2023-09-19T07:05:27;18.30;99.90
36586;DHT22;22591;48.314;11.562;2023-09-19T07:07:54;18.70;99.90
36586;DHT22;22591;48.314;11.562;2023-09-19T07:10:22;18.90;99.90
36586;DHT22;22591;48.314;11.562;2023-09-19T07:13:01;19.00;99.90
36586;DHT22;22591;48.314;11.562;2023-09-19T07:15:32;18.90;99.90
36586;DHT22;22591;48.314;11.562;2023-09-19T07:18:04;19.00;99.90
36586;DHT22;22591;48.314;11.562;2023-09-19T07:20:30;19.00;99.90
36586;DHT22;22591;48.314;11.562;2023-09-19T07:22:58;19.00;99.90
36586;DHT22;22591;48.314;11.562;2023-09-19T07:25:28;19.00;99.90
36586;DHT22;22591;48.314;11.562;2023-09-19T07:28:00;19.10;99.90
36586;DHT22;22591;48.314;11.562;2023-09-19T07:30:26;19.10;99.90
36586;DHT22;22591;48.314;11.562;2023-09-19T07:32:53;19.20;99.90
36586;DHT22;22591;48.314;11.562;2023-09-19T07:35:20;19.20;99.90
36586;DHT22;22591;48.314;11.562;2023-09-19T07:37:52;19.30;99.90
36586;DHT22;22591;48.314;11.562;2023-09-19T07:40:18;19.50;99.90
36586;DHT22;22591;48.314;11.562;2023-09-19T07:42:45;19.90;99.90
36586;DHT22;22591;48.314;11.562;2023-09-19T07:45:13;20.30;99.90
36586;DHT22;22591;48.314;11.562;2023-09-19T07:47:50;20.50;99.90
36586;DHT22;22591;48.314;11.562;2023-09-19T07:50:17;20.70;99.90
36586;DHT22;22591;48.314;11.562;2023-09-19T07:52:50;20.60;99.90
36586;DHT22;22591;48.314;11.562;2023-09-19T07:55:20;20.60;99.90
36586;DHT22;22591;48.314;11.562;2023-09-19T07:57:50;20.60;99.90
36586;DHT22;22591;48.314;11.562;2023-09-19T08:00:17;20.60;99.90
36586;DHT22;22591;48.314;11.562;2023-09-19T08:02:44;20.70;99.90
36586;DHT22;22591;48.314;11.562;2023-09-19T08:05:10;20.70;99.90
36586;DHT22;22591;48.314;11.562;2023-09-19T08:07:45;20.60;99.90
36586;DHT22;22591;48.314;11.562;2023-09-19T08:10:14;20.50;99.90
36586;DHT22;22591;48.314;11.562;2023-09-19T08:12:43;20.30;99.90
36586;DHT22;22591;48.314;11.562;2023-09-19T08:15:18;20.30;99.90
36586;DHT22;22591;48.314;11.562;2023-09-19T08:17:48;20.40;99.90
36586;DHT22;22591;48.314;11.562;2023-09-19T08:20:14;20.60;99.90
36586;DHT22;22591;48.314;11.562;2023-09-19T08:22:53;20.80;99.90
36586;DHT22;22591;48.314;11.562;2023-09-19T08:25:22;21.10;99.90
36586;DHT22;22591;48.314;11.562;2023-09-19T08:27:49;21.20;99.90
36586;DHT22;22591;48.314;11.562;2023-09-19T08:30:16;21.10;99.90
36586;DHT22;22591;48.314;11.562;2023-09-19T08:32:42;20.90;99.90
36586;DHT22;22591;48.314;11.562;2023-09-19T08:35:12;20.90;99.90
36586;DHT22;22591;48.314;11.562;2023-09-19T08:37:38;20.70;99.90
36586;DHT22;22591;48.314;11.562;2023-09-19T08:40:06;20.50;99.90
36586;DHT22;22591;48.314;11.562;2023-09-19T08:42:58;20.60;99.90
36586;DHT22;22591;48.314;11.562;2023-09-19T08:45:26;20.70;99.90
36586;DHT22;22591;48.314;11.562;2023-09-19T08:48:17;20.60;99.90
36586;DHT22;22591;48.314;11.562;2023-09-19T08:51:04;20.50;99.90
36586;DHT22;22591;48.314;11.562;2023-09-19T08:53:52;20.60;99.90
36586;DHT22;22591;48.314;11.562;2023-09-19T08:56:20;20.70;99.90
36586;DHT22;22591;48.314;11.562;2023-09-19T08:58:57;20.70;99.90
36586;DHT22;22591;48.314;11.562;2023-09-19T09:01:27;20.90;99.90
36586;DHT22;22591;48.314;11.562;2023-09-19T09:03:54;21.00;99.90
36586;DHT22;22591;48.314;11.562;2023-09-19T09:06:21;21.20;99.90
36586;DHT22;22591;48.314;11.562;2023-09-19T09:08:47;21.30;99.90
36586;DHT22;22591;48.314;11.562;2023-09-19T09:11:15;21.30;99.90
36586;DHT22;22591;48.314;11.562;2023-09-19T09:13:46;21.60;99.90
36586;DHT22;22591;48.314;11.562;2023-09-19T09:16:12;21.80;99.90
36586;DHT22;22591;48.314;11.562;2023-09-19T09:18:40;21.90;99.90
36586;DHT22;22591;48.314;11.562;2023-09-19T09:21:06;22.00;99.90
36586;DHT22;22591;48.314;11.562;2023-09-19T09:23:33;21.90;99.90
36586;DHT22;22591;48.314;11.562;2023-09-19T09:26:00;21.90;99.90
36586;DHT22;22591;48.314;11.562;2023-09-19T09:28:32;21.70;99.90
36586;DHT22;22591;48.314;11.562;2023-09-19T09:31:00;21.70;99.90
36586;DHT22;22591;48.314;11.562;2023-09-19T09:33:29;21.80;99.90
36586;DHT22;22591;48.314;11.562;2023-09-19T09:35:59;21.80;99.90
36586;DHT22;22591;48.314;11.562;2023-09-19T09:38:30;22.10;99.90
36586;DHT22;22591;48.314;11.562;2023-09-19T09:41:09;22.20;99.90
36586;DHT22;22591;48.314;11.562;2023-09-19T09:43:42;22.40;99.90
36586;DHT22;22591;48.314;11.562;2023-09-19T09:46:18;22.70;99.60
36586;DHT22;22591;48.314;11.562;2023-09-19T09:51:48;22.90;99.10
36586;DHT22;22591;48.314;11.562;2023-09-19T09:54:25;22.90;98.50
36586;DHT22;22591;48.314;11.562;2023-09-19T09:57:07;22.90;98.00
36586;DHT22;22591;48.314;11.562;2023-09-19T09:59:52;22.70;98.10
36586;DHT22;22591;48.314;11.562;2023-09-19T10:02:35;22.80;98.50
36586;DHT22;22591;48.314;11.562;2023-09-19T10:05:20;23.20;98.20
36586;DHT22;22591;48.314;11.562;2023-09-19T10:07:47;23.60;97.40
36586;DHT22;22591;48.314;11.562;2023-09-19T10:10:37;23.70;96.90
36586;DHT22;22591;48.314;11.562;2023-09-19T10:13:20;23.60;96.40
36586;DHT22;22591;48.314;11.562;2023-09-19T10:15:51;23.60;96.80
36586;DHT22;22591;48.314;11.562;2023-09-19T10:18:23;23.80;96.50
36586;DHT22;22591;48.314;11.562;2023-09-19T10:20:49;24.00;95.60
36586;DHT22;22591;48.314;11.562;2023-09-19T10:23:19;24.10;95.30
36586;DHT22;22591;48.314;11.562;2023-09-19T10:25:51;24.50;94.90
36586;DHT22;22591;48.314;11.562;2023-09-19T10:28:18;24.80;94.40
36586;DHT22;22591;48.314;11.562;2023-09-19T10:30:50;24.70;93.70
36586;DHT22;22591;48.314;11.562;2023-09-19T10:33:19;24.30;93.20
36586;DHT22;22591;48.314;11.562;2023-09-19T10:35:49;24.00;94.10
36586;DHT22;22591;48.314;11.562;2023-09-19T10:38:24;23.60;94.10
36586;DHT22;22591;48.314;11.562;2023-09-19T10:40:54;23.10;95.10
36586;DHT22;22591;48.314;11.562;2023-09-19T10:43:25;22.90;95.80
36586;DHT22;22591;48.314;11.562;2023-09-19T10:45:53;22.90;95.90
36586;DHT22;22591;48.314;11.562;2023-09-19T10:48:22;22.90;95.40
36586;DHT22;22591;48.314;11.562;2023-09-19T10:51:20;22.90;95.60
36586;DHT22;22591;48.314;11.562;2023-09-19T10:53:59;22.80;95.70
36586;DHT22;22591;48.314;11.562;2023-09-19T10:56:33;22.40;97.00
36586;DHT22;22591;48.314;11.562;2023-09-19T10:59:09;22.20;98.70
36586;DHT22;22591;48.314;11.562;2023-09-19T11:01:51;22.10;98.40
36586;DHT22;22591;48.314;11.562;2023-09-19T11:04:27;22.30;97.20
36586;DHT22;22591;48.314;11.562;2023-09-19T11:07:13;22.50;96.90
36586;DHT22;22591;48.314;11.562;2023-09-19T11:09:56;22.70;96.30
36586;DHT22;22591;48.314;11.562;2023-09-19T11:15:02;22.80;96.40
36586;DHT22;22591;48.314;11.562;2023-09-19T11:25:41;22.30;96.90
36586;DHT22;22591;48.314;11.562;2023-09-19T11:30:45;21.90;98.40
36586;DHT22;22591;48.314;11.562;2023-09-19T11:33:21;21.80;99.00
36586;DHT22;22591;48.314;11.562;2023-09-19T11:46:30;22.50;97.90
36586;DHT22;22591;48.314;11.562;2023-09-19T11:49:05;22.60;97.70
36586;DHT22;22591;48.314;11.562;2023-09-19T11:51:40;22.70;96.50
36586;DHT22;22591;48.314;11.562;2023-09-19T11:54:10;22.90;96.70
36586;DHT22;22591;48.314;11.562;2023-09-19T11:56:43;23.00;96.20
36586;DHT22;22591;48.314;11.562;2023-09-19T11:59:10;23.10;95.80
36586;DHT22;22591;48.314;11.562;2023-09-19T12:01:38;23.20;95.60
36586;DHT22;22591;48.314;11.562;2023-09-19T12:04:11;23.60;94.50
36586;DHT22;22591;48.314;11.562;2023-09-19T12:06:38;23.60;94.00
36586;DHT22;22591;48.314;11.562;2023-09-19T12:09:13;23.60;94.10
36586;DHT22;22591;48.314;11.562;2023-09-19T12:11:43;23.70;93.60
36586;DHT22;22591;48.314;11.562;2023-09-19T12:14:09;23.80;93.30
36586;DHT22;22591;48.314;11.562;2023-09-19T12:16:36;23.90;93.20
36586;DHT22;22591;48.314;11.562;2023-09-19T12:19:22;23.90;93.20
36586;DHT22;22591;48.314;11.562;2023-09-19T12:22:03;23.70;93.10
36586;DHT22;22591;48.314;11.562;2023-09-19T12:24:32;23.70;93.30
36586;DHT22;22591;48.314;11.562;2023-09-19T12:27:04;23.80;92.60
36586;DHT22;22591;48.314;11.562;2023-09-19T12:29:42;24.10;92.30
36586;DHT22;22591;48.314;11.562;2023-09-19T12:32:10;24.40;91.70
36586;DHT22;22591;48.314;11.562;2023-09-19T12:34:36;24.40;91.70
36586;DHT22;22591;48.314;11.562;2023-09-19T12:37:21;24.10;91.80
36586;DHT22;22591;48.314;11.562;2023-09-19T12:40:07;23.60;91.80
36586;DHT22;22591;48.314;11.562;2023-09-19T12:42:49;23.10;92.70
36586;DHT22;22591;48.314;11.562;2023-09-19T12:45:17;22.60;93.80
36586;DHT22;22591;48.314;11.562;2023-09-19T12:48:22;22.20;95.60
36586;DHT22;22591;48.314;11.562;2023-09-19T12:53:35;21.60;99.10
36586;DHT22;22591;48.314;11.562;2023-09-19T12:56:05;21.60;98.70
36586;DHT22;22591;48.314;11.562;2023-09-19T12:58:56;21.80;98.00
36586;DHT22;22591;48.314;11.562;2023-09-19T13:01:24;22.00;97.60
36586;DHT22;22591;48.314;11.562;2023-09-19T13:04:19;22.20;96.50
36586;DHT22;22591;48.314;11.562;2023-09-19T13:06:51;22.00;96.30
36586;DHT22;22591;48.314;11.562;2023-09-19T13:09:20;21.90;97.00
36586;DHT22;22591;48.314;11.562;2023-09-19T13:11:48;21.80;97.10
36586;DHT22;22591;48.314;11.562;2023-09-19T13:14:24;21.80;97.10
36586;DHT22;22591;48.314;11.562;2023-09-19T13:19:40;21.90;96.70
36586;DHT22;22591;48.314;11.562;2023-09-19T13:25:18;21.90;96.60
36586;DHT22;22591;48.314;11.562;2023-09-19T13:27:53;21.90;96.50
36586;DHT22;22591;48.314;11.562;2023-09-19T13:30:25;21.90;96.00
36586;DHT22;22591;48.314;11.562;2023-09-19T13:32:52;21.80;96.30
36586;DHT22;22591;48.314;11.562;2023-09-19T13:35:19;21.80;96.40
36586;DHT22;22591;48.314;11.562;2023-09-19T13:37:47;21.90;96.30
36586;DHT22;22591;48.314;11.562;2023-09-19T13:40:15;22.00;95.90
36586;DHT22;22591;48.314;11.562;2023-09-19T13:42:43;22.10;95.90
36586;DHT22;22591;48.314;11.562;2023-09-19T13:45:08;22.10;95.80
36586;DHT22;22591;48.314;11.562;2023-09-19T13:47:39;22.10;95.90
36586;DHT22;22591;48.314;11.562;2023-09-19T13:50:05;22.30;95.80
36586;DHT22;22591;48.314;11.562;2023-09-19T13:52:31;22.30;95.70
36586;DHT22;22591;48.314;11.562;2023-09-19T13:54:59;22.40;95.80
36586;DHT22;22591;48.314;11.562;2023-09-19T13:57:26;22.60;95.70
36586;DHT22;22591;48.314;11.562;2023-09-19T13:59:53;22.70;95.10
36586;DHT22;22591;48.314;11.562;2023-09-19T14:02:21;22.80;94.50
36586;DHT22;22591;48.314;11.562;2023-09-19T14:04:54;22.70;94.40
36586;DHT22;22591;48.314;11.562;2023-09-19T14:07:21;22.90;94.80
36586;DHT22;22591;48.314;11.562;2023-09-19T14:09:48;23.20;93.90
36586;DHT22;22591;48.314;11.562;2023-09-19T14:12:15;23.10;93.60
36586;DHT22;22591;48.314;11.562;2023-09-19T14:14:40;23.30;93.90
36586;DHT22;22591;48.314;11.562;2023-09-19T14:17:06;23.40;93.30
36586;DHT22;22591;48.314;11.562;2023-09-19T14:19:33;23.50;92.70
36586;DHT22;22591;48.314;11.562;2023-09-19T14:22:02;23.70;92.50
36586;DHT22;22591;48.314;11.562;2023-09-19T14:24:33;23.80;92.10
36586;DHT22;22591;48.314;11.562;2023-09-19T14:26:59;23.90;91.80
36586;DHT22;22591;48.314;11.562;2023-09-19T14:29:26;23.90;92.00
36586;DHT22;22591;48.314;11.562;2023-09-19T14:31:51;23.90;92.20
36586;DHT22;22591;48.314;11.562;2023-09-19T14:34:18;23.90;92.30
36586;DHT22;22591;48.314;11.562;2023-09-19T14:36:45;24.10;91.90
36586;DHT22;22591;48.314;11.562;2023-09-19T14:39:10;24.10;91.50
36586;DHT22;22591;48.314;11.562;2023-09-19T14:41:36;23.90;91.40
36586;DHT22;22591;48.314;11.562;2023-09-19T14:44:02;23.60;91.90
36586;DHT22;22591;48.314;11.562;2023-09-19T14:46:28;23.50;92.40
36586;DHT22;22591;48.314;11.562;2023-09-19T14:48:55;23.40;92.10
36586;DHT22;22591;48.314;11.562;2023-09-19T14:51:23;23.30;92.40
36586;DHT22;22591;48.314;11.562;2023-09-19T14:53:49;23.30;92.60
36586;DHT22;22591;48.314;11.562;2023-09-19T14:56:16;23.20;92.90
36586;DHT22;22591;48.314;11.562;2023-09-19T14:58:44;23.20;92.90
36586;DHT22;22591;48.314;11.562;2023-09-19T15:01:13;23.10;93.00
36586;DHT22;22591;48.314;11.562;2023-09-19T15:03:41;23.00;92.90
36586;DHT22;22591;48.314;11.562;2023-09-19T15:06:08;22.80;92.90
36586;DHT22;22591;48.314;11.562;2023-09-19T15:08:37;22.80;93.00
36586;DHT22;22591;48.314;11.562;2023-09-19T15:11:08;22.60;93.10
36586;DHT22;22591;48.314;11.562;2023-09-19T15:13:36;22.60;93.50
36586;DHT22;22591;48.314;11.562;2023-09-19T15:16:07;22.60;93.40
36586;DHT22;22591;48.314;11.562;2023-09-19T15:18:41;22.60;93.40
36586;DHT22;22591;48.314;11.562;2023-09-19T15:21:11;22.50;93.10
36586;DHT22;22591;48.314;11.562;2023-09-19T15:23:39;22.50;93.10
36586;DHT22;22591;48.314;11.562;2023-09-19T15:26:09;22.50;93.40
36586;DHT22;22591;48.314;11.562;2023-09-19T15:28:37;22.50;93.50
36586;DHT22;22591;48.314;11.562;2023-09-19T15:31:08;22.40;93.10
36586;DHT22;22591;48.314;11.562;2023-09-19T15:33:35;22.40;93.50
36586;DHT22;22591;48.314;11.562;2023-09-19T15:36:11;22.40;93.50
36586;DHT22;22591;48.314;11.562;2023-09-19T15:41:45;22.40;93.90
36586;DHT22;22591;48.314;11.562;2023-09-19T15:44:16;22.40;93.80
36586;DHT22;22591;48.314;11.562;2023-09-19T15:46:42;22.40;93.90
36586;DHT22;22591;48.314;11.562;2023-09-19T15:49:08;22.40;93.80
36586;DHT22;22591;48.314;11.562;2023-09-19T15:51:35;22.40;93.00
36586;DHT22;22591;48.314;11.562;2023-09-19T15:54:13;22.30;93.40
36586;DHT22;22591;48.314;11.562;2023-09-19T15:56:45;22.30;93.30
36586;DHT22;22591;48.314;11.562;2023-09-19T15:59:11;22.20;93.50
36586;DHT22;22591;48.314;11.562;2023-09-19T16:01:42;22.10;93.70
36586;DHT22;22591;48.314;11.562;2023-09-19T16:04:08;22.10;93.60
36586;DHT22;22591;48.314;11.562;2023-09-19T16:06:36;22.00;93.30
36586;DHT22;22591;48.314;11.562;2023-09-19T16:09:04;22.00;93.60
36586;DHT22;22591;48.314;11.562;2023-09-19T16:11:34;21.90;93.80
36586;DHT22;22591;48.314;11.562;2023-09-19T16:14:03;21.80;94.20
36586;DHT22;22591;48.314;11.562;2023-09-19T16:16:29;21.80;94.40
36586;DHT22;22591;48.314;11.562;2023-09-19T16:18:58;21.70;94.40
36586;DHT22;22591;48.314;11.562;2023-09-19T16:21:27;21.70;94.50
36586;DHT22;22591;48.314;11.562;2023-09-19T16:23:56;21.60;94.60
36586;DHT22;22591;48.314;11.562;2023-09-19T16:26:25;21.60;94.80
36586;DHT22;22591;48.314;11.562;2023-09-19T16:28:53;21.50;95.00
36586;DHT22;22591;48.314;11.562;2023-09-19T16:31:21;21.50;94.90